x

Columbia River Bar - 20nm West Of Columbia River Mouth (46029) Wave Buoy

2:50pm - Tue 18th Sep 2018 All times are PDT. -7 hours from GMT.

  • Sig Wave height 2.6ft
  • Swell Direction
  • Peak Period 15s
  • Average Period 5s
  • Wind
    13mph, 16mph gusts
  • Sea Temp 59°f
  • Air Temp 57°f
  • Sea Pressure 1020mb
  • Columbia River Bar - 20nm West Of Columbia River Mouth
  • Columbia River Bar - 20nm West Of Columbia River Mouth

More Historic Weather Station data

Upgrade to MSW Pro to gain access to the past 30 days of data for over 8000 Wavebouys and Weather Stations around the globe.

Join

Comparision Forecast

View Surf forecast
   
Tue 09/18 2:50pm 2.5ft 15s 5s 13 16 mph 1020mb 59f 57f
11:50am 3ft 15s 5s 11 13 mph 1020.7mb 58f 56f
10:50am 3.5ft 16s 5s 13 16 mph 1020.6mb 58f 56f
9:50am 3.5ft 15s 5s 13 16 mph 1020.5mb 58f 56f
8:50am 3.5ft 15s 5s 16 18 mph 1020.3mb 58f 56f
7:50am 3.5ft 15s 5s 16 18 mph 1020mb 58f 56f
6:50am 3.5ft 5s 5s 18 20 mph 1019.8mb 58f 56f
5:50am 3.5ft 15s 5s 18 20 mph 1019.7mb 58f 56f
4:50am 4ft 16s 5s 16 20 mph 1019.7mb 59f 56f
3:50am 4ft 5s 5s 16 18 mph 1019.8mb 59f 57f
2:50am 4ft 16s 5s 16 18 mph 1019.9mb 59f 57f
1:50am 4.5ft 16s 5s 18 20 mph 1020.1mb 59f 57f
12:50am 4.5ft 5s 5s 18 20 mph 1020.1mb 59f 57f
Mon 09/17 11:50pm 4.5ft 4s 5s 18 22 mph 1020.2mb 59f 57f
10:50pm 4.5ft 16s 5s 18 22 mph 1020.1mb 59f 58f
9:50pm 4.5ft 15s 5s 20 22 mph 1020.2mb 60f 57f
7:50pm 3.5ft 15s 5s 18 22 mph 1019.5mb 60f 58f
6:50pm 4ft 16s 5s 20 22 mph 1019.5mb 60f 58f
5:50pm 3.5ft 7s 5s 18 22 mph 1019.6mb 60f 58f
4:50pm 4ft 10s 5s 20 22 mph 1019.8mb 60f 58f
2:50pm 4.5ft 7s 6s 16 18 mph 1020.2mb 60f 57f
1:50pm 4.5ft 7s 6s 13 16 mph 1020.5mb 59f 57f
12:50pm 4.5ft 7s 6s 13 16 mph 1020.8mb 59f 57f
11:50am 4.5ft 8s 6s 13 16 mph 1021.1mb 59f 57f
10:50am 4.5ft 7s 6s 11 16 mph 1020.9mb 59f 57f
9:50am 5ft 7s 6s 13 16 mph 1020.6mb 59f 57f
8:50am 5ft 8s 7s 11 16 mph 1020.4mb 59f 58f
7:50am 5ft 8s 7s 11 11 mph 1020.2mb 59f 57f
6:50am 5.5ft 8s 7s 9 11 mph 1019.9mb 59f 58f
5:50am 5ft 8s 7s 9 11 mph 1019.6mb 59f 58f
4:50am 5ft 8s 7s 9 11 mph 1019.8mb 59f 58f
3:50am 5.5ft 8s 7s 7 9 mph 1019.8mb 59f 58f
1:50am 5ft 8s 6s 7 9 mph 1019.8mb 59f 58f
12:50am 5.5ft 7s 6s 4 7 mph 1019.7mb 59f 58f
Sun 09/16 11:50pm 5.5ft 6s 6s 4 7 mph 1019.6mb 59f 58f
10:50pm 5ft 7s 6s 2 4 mph 1019.5mb 59f 58f
9:50pm 5ft 7s 6s 4 4 mph 1019mb 59f 58f
8:50pm 5.5ft 7s 6s 7 9 mph 1018.6mb 59f 59f
7:50pm 5ft 6s 6s 11 13 mph 1018mb 59f 59f
4:50pm 5ft 7s 6s 4 7 mph 1017.1mb 60f 61f
3:50pm 5.5ft 7s 6s 7 9 mph 1016.7mb 59f 60f
2:50pm 6ft 7s 6s 9 11 mph 1016.2mb 59f 60f
1:50pm 6ft 7s 6s 9 11 mph 1015.8mb 59f 60f
11:50am 6ft 7s 6s 11 16 mph 1014.4mb 59f 60f
10:50am 6ft 7s 6s 11 13 mph 1013.4mb 59f 60f
9:50am 6ft 7s 6s 11 13 mph 1012.4mb 59f 59f
8:50am 6ft 7s 6s 13 20 mph 1011.7mb 59f 57f
7:50am 6ft 7s 6s 11 13 mph 1010.9mb 59f 60f
6:50am 6ft 7s 6s 13 16 mph 1009.9mb 59f 60f
5:50am 6ft 7s 6s 16 18 mph 1009.3mb 59f 60f
4:50am 6.5ft 7s 6s 16 20 mph 1008.7mb 59f 59f
3:50am 7ft 7s 6s 18 25 mph 1008.7mb 59f 58f
2:50am 8ft 7s 6s 20 25 mph 1008.4mb 59f 59f
12:50am 6.5ft 6s 5s 22 27 mph 1008.5mb 59f 60f
Sat 09/15 11:50pm 5.5ft 6s 5s 20 25 mph 1009mb 59f 59f
10:50pm 5ft 6s 5s 20 29 mph 1009.3mb 59f 60f
9:50pm 5ft 6s 5s 20 27 mph 1009.6mb 59f 58f
8:50pm 4.5ft 6s 5s 20 22 mph 1009.8mb 59f 58f
7:50pm 5ft 6s 5s 16 18 mph 1009.9mb 59f 57f
6:50pm 5ft 5s 5s 18 22 mph 1010.1mb 59f 57f
5:50pm 4.5ft 11s 5s 20 22 mph 1010mb 59f 59f
4:50pm 4.5ft 16s 5s 18 22 mph 1010.2mb 59f 59f
3:50pm 4.5ft 16s 5s 18 22 mph 1010.5mb 60f 58f
2:50pm 4.5ft 6s 5s 16 18 mph 1011mb 59f 57f
1:50pm 5ft 5s 5s 22 25 mph 1010.5mb 59f 58f
12:50pm 4.5ft 16s 5s 18 20 mph 1010.5mb 59f 59f
11:50am 4.5ft 16s 5s 16 18 mph 1010.6mb 60f 59f
10:50am 4ft 5s 5s 9 11 mph 1010.7mb 60f 59f
9:50am 4ft 12s 5s 16 18 mph 1010.5mb 60f 59f
8:50am 3.5ft 11s 5s 13 16 mph 1010.4mb 60f 58f
7:50am 3.5ft 11s 5s 13 13 mph 1010.6mb 60f 58f
6:50am 3.5ft 10s 6s 11 13 mph 1010.4mb 60f 59f
4:50am 3.5ft 7s 5s 11 11 mph 1011mb 59f 58f
3:50am 3.5ft 16s 6s 9 11 mph 1011.2mb 59f 58f
2:50am 3.5ft 17s 5s 2 7 mph 1011.8mb 59f 55f
1:50am 3.5ft 11s 5s 11 13 mph 1011.8mb 59f 59f
12:50am 3.5ft 11s 5s 13 16 mph 1012.1mb 59f 59f
Fri 09/14 11:50pm 3.5ft 7s 5s 16 18 mph 1012.5mb 59f 59f